Share

Gully, MN (56646)

Fosston Municipal (KFSE) Elev 1276 ft | 47.59 °N, 95.77 °W | Change Station
Active Advisory: Flood Warning

Current weather conditions updated 13 minutes ago

Clear
Clear
25 °F
Feels Like 25 °F
N
0
Wind Variable Wind from North
Sunrise 6:29 AM
Sunset 8:15 PM
Moon Waning Gibbous

Today is forecast to be Warmer than yesterday.

Pressure 30.31 in
Visibility 10.0 miles
Clouds Clear
Dew Point 12 °F
Humidity 59%
Rainfall 0.00 in
Snow Depth Not available.
UV 1 out of 16
Pollen 7.90 out of 12
Air Quality Not available.
Flu Activity Sporadic
METAR KFSE 171315Z AUTO 00000KT 10SM CLR M04/M11 A3031 RMK AO2

More Conditions Fewer Conditions

Pressure 30.31 in
Visibility 10.0 miles
Clouds Clear
Dew Point 12 °F
Humidity 59%
Rainfall 0.00 in
Snow Depth Not available.
UV 1 out of 16
Pollen 7.90 out of 12
Air Quality Not available.
Flu Activity Sporadic
METAR KFSE 171315Z AUTO 00000KT 10SM CLR M04/M11 A3031 RMK AO2

More Conditions Fewer Conditions

10-Day Forecast

Almanac

Astronomy

Apr. 17, 2014 Rise Set
Actual Time 6:29 AM CDT 8:15 PM CDT
Civil Twilight 5:56 AM CDT 8:48 PM CDT
Nautical Twilight 5:16 AM CDT 9:28 PM CDT
Astronomical Twilight 4:33 AM CDT 10:12 PM CDT
Moon 11:11 PM CDT 7:54 AM CDT
Length of Visible Light 14h 51m
Length of Day
13h 45m
Tomorrow will be 3m 18s longer.
Waning Gibbous, 94% of the Moon is Illuminated
Today
Waning Gibbous
Apr 22
Last Quarter
Apr 29
New
May 6
First Quarter
May 14
Full

Today's Extremes

State Highs State Lows

Community

  • New Day
    New Day
  • Lake Michigan Sunrise
    Lake Michigan Sunrise
  • sunset from izmir, narlıdere
    sunset from izmir, narlıdere
  • oregon cherry
    oregon cherry
  • Sunset over the Bay
    Sunset over the Bay

WunderPhotos

Upload Photos

1,701,963 photos uploaded!

Nearby

Snow Depth

Station Depth Elevation
No new snow has been reported.

Coastal Water Temperatures

Place Temperature
No Stations Reporting

Earthquake Activity

City Distance Mag. Time & Date
No recent earthquake activity has been reported nearby.
Minimum magnitude displayed is 2.5.

Nearby Weather Stations

There are no personal weather stations in this area.

What do you think?

We're not finished. Please let us know what you like, what you don't like, and what you are still missing.